aviador You're here:

OITT Decoded Metar

TABRIZ in IRAN
Report Time2018-07-20 06:30:00
UTC Time2018-07-20 06:41:26
Flight Rules vfr VFR
Wind270° at 04 kt
W.Decomp.*RWY 30: 3.3 kt HW 2.3 kt LCW
W.Rank270° ranks 8
Current wind is below 270° avg. (7.8)
Visibility9999 m
Phenomena:N/A
Clouds:Few 030 Hf
Expected CloudBase > 12,000 ft AGL from Temp-Dew spread
CeilingNone
Temp32°C (ISA +26)
Dew Point02°C (15% RH)
Heat Index29.8°C
AAT28.9°C
QNH1010 hPa
Density Alt7,575 ft
Elevation4,465 ft
Report Wrong Elevation
Raw Report
METAR OITT 200630Z 27004KT 9999 FEW030 32/02 Q1010 A2983=

Extra information for OITT:More info

Metar Taf Metar & Taf Last 4 Metars F.Rules Stats Wind Profile Meteogram Temp Stats Airport Information Weather charts Add Link Nearby VenuesMetar ALERT Operation Metar Decoded Social comments